Terminal Aerodrome Forecast
Issued by NWS

Home | Current Version | Previous Version | Text Only | Print | Product List | Glossary On
Versions: 1 2 3 4 5 6 7 8 9 10 11 12 13 14 15 16 17 18
000
FTUS42 KMLB 211720
TAFFPR
TAF
KFPR 211720Z 2118/2218 12006KT P6SM VCTS SCT030CB BKN100 BKN250
      TEMPO 2119/2121 3SM TSRA BKN030CB BKN070
     FM212200 15007KT P6SM VCSH SCT040 BKN250
     FM220100 VRB02KT P6SM FEW035 SCT100 BKN200
     FM221400 17005KT P6SM SCT030=

USA.gov is the U.S. government's official web portal to all federal, state and local government web resources and services.